createdAt,value
2019-02-27T00:00:13.460Z,11.60
2019-02-27T00:02:42.077Z,11.60
2019-02-27T00:05:10.759Z,11.50
2019-02-27T00:07:39.236Z,11.50
2019-02-27T00:10:08.349Z,11.40
2019-02-27T00:12:36.955Z,11.40
2019-02-27T00:15:06.939Z,11.40
2019-02-27T00:17:35.384Z,11.40
2019-02-27T00:20:05.312Z,11.30
2019-02-27T00:22:33.966Z,11.30
2019-02-27T00:25:03.310Z,11.30
2019-02-27T00:27:32.582Z,11.30
2019-02-27T00:30:04.638Z,11.20
2019-02-27T00:32:31.313Z,11.20
2019-02-27T00:34:59.800Z,11.10
2019-02-27T00:37:28.280Z,11.10
2019-02-27T00:39:56.861Z,11.00
2019-02-27T00:42:33.251Z,11.00
2019-02-27T00:44:55.598Z,11.00
2019-02-27T00:47:24.119Z,11.00
2019-02-27T00:49:52.598Z,10.90
2019-02-27T00:52:21.081Z,10.90
2019-02-27T00:54:49.534Z,10.90
2019-02-27T00:57:20.605Z,10.90
2019-02-27T00:59:48.285Z,10.80
2019-02-27T01:02:19.939Z,10.80
2019-02-27T01:04:46.973Z,10.80
2019-02-27T01:07:20.262Z,10.80
2019-02-27T01:09:47.041Z,10.70
2019-02-27T01:12:15.521Z,10.70
2019-02-27T01:14:43.977Z,10.70
2019-02-27T01:17:12.536Z,10.70
2019-02-27T01:19:42.710Z,10.60
2019-02-27T01:22:11.285Z,10.60
2019-02-27T01:24:39.731Z,10.60
2019-02-27T01:27:08.248Z,10.50
2019-02-27T01:29:36.782Z,10.50
2019-02-27T01:32:05.258Z,10.50
2019-02-27T01:34:33.721Z,10.50
2019-02-27T01:37:02.199Z,10.50
2019-02-27T01:39:30.696Z,10.40
2019-02-27T01:41:59.228Z,10.40
2019-02-27T01:44:30.689Z,10.40
2019-02-27T01:47:01.840Z,10.40
2019-02-27T01:49:29.443Z,10.40
2019-02-27T01:51:59.137Z,10.30
2019-02-27T01:54:28.149Z,10.30
2019-02-27T01:56:56.682Z,10.30
2019-02-27T01:59:25.163Z,10.20
2019-02-27T02:01:53.644Z,10.20
2019-02-27T02:04:22.125Z,10.20
2019-02-27T02:06:50.603Z,10.10
2019-02-27T02:09:32.345Z,10.10
2019-02-27T02:12:08.670Z,10.10
2019-02-27T02:14:45.702Z,10.00
2019-02-27T02:17:20.172Z,10.00
2019-02-27T02:20:00.429Z,10.00
2019-02-27T02:22:34.601Z,10.00
2019-02-27T02:25:14.729Z,10.00
2019-02-27T02:28:01.286Z,10.00
2019-02-27T02:30:49.078Z,9.90
2019-02-27T02:33:30.491Z,9.90
2019-02-27T02:36:28.756Z,9.90
2019-02-27T02:39:17.674Z,9.90
2019-02-27T02:42:07.326Z,9.90
2019-02-27T02:44:41.879Z,9.80
2019-02-27T02:47:19.979Z,9.80
2019-02-27T02:50:19.290Z,9.80
2019-02-27T02:53:10.047Z,9.80
2019-02-27T02:56:08.663Z,9.80
2019-02-27T02:58:47.276Z,9.80
2019-02-27T03:01:16.534Z,9.70
2019-02-27T03:04:12.811Z,9.70
2019-02-27T03:06:47.916Z,9.70
2019-02-27T03:09:34.377Z,9.70
2019-02-27T03:12:08.578Z,9.60
2019-02-27T03:14:45.701Z,9.60
2019-02-27T03:17:28.927Z,9.60
2019-02-27T03:20:16.802Z,9.60
2019-02-27T03:23:05.034Z,9.60
2019-02-27T03:25:40.710Z,9.60
2019-02-27T03:28:21.455Z,9.50
2019-02-27T03:31:17.955Z,9.50
2019-02-27T03:34:05.889Z,9.50
2019-02-27T03:36:54.125Z,9.50
2019-02-27T03:39:46.699Z,9.40
2019-02-27T03:42:30.836Z,9.40
2019-02-27T03:45:03.324Z,9.40
2019-02-27T03:47:43.902Z,9.30
2019-02-27T03:50:18.416Z,9.30
2019-02-27T03:53:10.887Z,9.20
2019-02-27T03:55:52.856Z,9.20
2019-02-27T03:58:33.199Z,9.20
2019-02-27T04:01:16.699Z,9.20
2019-02-27T04:04:06.295Z,9.20
2019-02-27T04:06:59.890Z,9.20
2019-02-27T04:09:28.369Z,9.20
2019-02-27T04:11:56.850Z,9.20
2019-02-27T04:14:40.213Z,9.10
2019-02-27T04:17:07.386Z,9.10
2019-02-27T04:19:39.295Z,9.20
2019-02-27T04:22:06.013Z,9.20
2019-02-27T04:24:34.501Z,9.10
2019-02-27T04:27:03.021Z,9.20
2019-02-27T04:29:31.590Z,9.20
2019-02-27T04:32:00.115Z,9.20
2019-02-27T04:34:33.028Z,9.20
2019-02-27T04:36:58.784Z,9.10
2019-02-27T04:39:27.234Z,9.10
2019-02-27T04:41:55.718Z,9.10
2019-02-27T04:44:24.195Z,9.10
2019-02-27T04:46:54.926Z,9.10
2019-02-27T04:49:22.913Z,9.00
2019-02-27T04:51:51.408Z,9.00
2019-02-27T04:54:19.880Z,9.00
2019-02-27T04:56:48.464Z,9.00
2019-02-27T04:59:18.765Z,9.00
2019-02-27T05:01:47.134Z,9.00
2019-02-27T05:04:15.665Z,9.00
2019-02-27T05:06:46.821Z,9.00
2019-02-27T05:09:14.407Z,9.00
2019-02-27T05:11:47.605Z,9.00
2019-02-27T05:14:13.072Z,8.90
2019-02-27T05:16:41.562Z,9.00
2019-02-27T05:19:10.024Z,8.90
2019-02-27T05:21:38.608Z,8.90
2019-02-27T05:24:07.681Z,8.80
2019-02-27T05:26:37.135Z,8.80
2019-02-27T05:29:05.708Z,8.80
2019-02-27T05:31:34.236Z,8.80
2019-02-27T05:34:02.780Z,8.70
2019-02-27T05:36:31.767Z,8.70
2019-02-27T05:39:00.826Z,8.70
2019-02-27T05:41:32.991Z,8.70
2019-02-27T05:43:59.548Z,8.70
2019-02-27T05:46:28.021Z,8.70
2019-02-27T05:48:56.574Z,8.70
2019-02-27T05:51:25.024Z,8.70
2019-02-27T05:53:56.175Z,8.70
2019-02-27T05:56:23.733Z,8.60
2019-02-27T05:58:56.113Z,8.60
2019-02-27T06:01:22.401Z,8.60
2019-02-27T06:03:52.313Z,8.60
2019-02-27T06:06:21.064Z,8.60
2019-02-27T06:08:49.539Z,8.60
2019-02-27T06:11:18.108Z,8.60
2019-02-27T06:13:47.446Z,8.60
2019-02-27T06:16:16.680Z,8.60
2019-02-27T06:18:45.148Z,8.60
2019-02-27T06:21:16.374Z,8.50
2019-02-27T06:23:43.861Z,8.60
2019-02-27T06:26:12.397Z,8.50
2019-02-27T06:28:41.902Z,8.50
2019-02-27T06:31:10.443Z,8.50
2019-02-27T06:33:38.897Z,8.50
2019-02-27T06:36:07.937Z,8.50
2019-02-27T06:38:37.008Z,8.60
2019-02-27T06:41:05.494Z,8.60
2019-02-27T06:43:33.951Z,8.60
2019-02-27T06:46:02.437Z,8.60
2019-02-27T06:48:30.891Z,8.70
2019-02-27T06:51:00.977Z,8.70
2019-02-27T06:53:29.629Z,8.70
2019-02-27T06:56:02.801Z,8.70
2019-02-27T06:58:28.289Z,8.70
2019-02-27T07:00:56.759Z,8.80
2019-02-27T07:03:29.270Z,8.80
2019-02-27T07:05:55.424Z,8.80
2019-02-27T07:08:23.905Z,8.80
2019-02-27T07:10:52.385Z,8.90
2019-02-27T07:13:21.685Z,8.90
2019-02-27T07:15:50.299Z,9.00
2019-02-27T07:18:18.793Z,9.10
2019-02-27T07:20:47.265Z,9.10
2019-02-27T07:23:15.889Z,9.20
2019-02-27T07:25:44.349Z,9.20
2019-02-27T07:28:12.851Z,9.20
2019-02-27T07:30:42.648Z,9.30
2019-02-27T07:33:11.537Z,9.30
2019-02-27T07:35:40.054Z,9.40
2019-02-27T07:38:08.575Z,9.50
2019-02-27T07:40:37.121Z,9.50
2019-02-27T07:43:05.724Z,9.60
2019-02-27T07:45:34.847Z,9.70
2019-02-27T07:48:03.310Z,9.80
2019-02-27T07:50:32.621Z,9.90
2019-02-27T07:53:01.241Z,10.00
2019-02-27T07:55:29.737Z,10.10
2019-02-27T07:57:59.230Z,10.20
2019-02-27T08:00:27.882Z,10.30
2019-02-27T08:02:56.371Z,10.30
2019-02-27T08:05:28.350Z,10.40
2019-02-27T08:07:55.057Z,10.50
2019-02-27T08:10:25.608Z,10.60
2019-02-27T08:12:56.399Z,10.70
2019-02-27T08:15:25.468Z,10.80
2019-02-27T08:17:57.508Z,10.90
2019-02-27T08:20:24.503Z,11.00
2019-02-27T08:22:53.046Z,11.10
2019-02-27T08:25:21.582Z,11.20
2019-02-27T08:27:50.197Z,11.30
2019-02-27T08:30:21.754Z,11.40
2019-02-27T08:32:50.313Z,11.50
2019-02-27T08:35:21.633Z,11.60
2019-02-27T08:37:50.201Z,11.70
2019-02-27T08:40:18.706Z,11.80
2019-02-27T08:42:47.312Z,11.90
2019-02-27T08:45:20.074Z,12.00
2019-02-27T08:47:47.334Z,12.10
2019-02-27T08:50:19.942Z,12.30
2019-02-27T08:52:51.618Z,12.30
2019-02-27T08:55:22.360Z,12.40
2019-02-27T08:57:49.975Z,12.50
2019-02-27T09:00:26.485Z,12.60
2019-02-27T09:02:55.830Z,12.70
2019-02-27T09:05:24.629Z,12.80
2019-02-27T09:07:53.204Z,13.00
2019-02-27T09:10:26.692Z,13.10
2019-02-27T09:13:04.380Z,13.20
2019-02-27T09:15:24.305Z,13.30
2019-02-27T09:17:52.828Z,13.40
2019-02-27T09:20:22.246Z,13.50
2019-02-27T09:22:50.788Z,13.60
2019-02-27T09:25:23.586Z,13.80
2019-02-27T09:27:49.602Z,13.90
2019-02-27T09:30:20.529Z,14.00
2019-02-27T09:32:49.014Z,14.10
2019-02-27T09:35:17.466Z,14.30
2019-02-27T09:37:48.455Z,14.40
2019-02-27T09:40:29.787Z,14.50
2019-02-27T09:42:58.600Z,14.60
2019-02-27T09:45:36.185Z,14.70
2019-02-27T09:48:05.459Z,14.80
2019-02-27T09:50:39.073Z,14.90
2019-02-27T09:53:07.631Z,15.00
2019-02-27T09:55:36.232Z,15.10
2019-02-27T09:58:10.070Z,15.20
2019-02-27T10:00:41.142Z,15.30
2019-02-27T10:03:09.847Z,15.40
2019-02-27T10:05:40.724Z,15.50
2019-02-27T10:08:09.416Z,15.60
2019-02-27T10:10:37.941Z,15.70
2019-02-27T10:13:06.454Z,15.80
2019-02-27T10:15:35.034Z,15.90
2019-02-27T10:18:03.686Z,16.00
2019-02-27T10:20:36.878Z,16.10
2019-02-27T10:23:02.507Z,16.20
2019-02-27T10:25:31.114Z,16.30
2019-02-27T10:28:03.421Z,16.40
2019-02-27T10:30:29.925Z,16.50
2019-02-27T10:32:58.421Z,16.60
2019-02-27T10:35:29.509Z,16.70
2019-02-27T10:37:57.297Z,16.70
2019-02-27T10:40:27.045Z,16.80
2019-02-27T10:42:55.510Z,16.90
2019-02-27T10:45:24.154Z,17.00
2019-02-27T10:47:52.677Z,17.10
2019-02-27T10:50:21.177Z,17.10
2019-02-27T10:52:50.190Z,17.20
2019-02-27T10:55:22.766Z,17.30
2019-02-27T10:57:51.462Z,17.40
2019-02-27T11:00:27.006Z,17.50
2019-02-27T11:02:55.688Z,17.60
2019-02-27T11:05:26.446Z,17.70
2019-02-27T11:07:55.079Z,17.70
2019-02-27T11:10:24.074Z,17.80
2019-02-27T11:12:52.614Z,17.90
2019-02-27T11:15:22.421Z,17.90
2019-02-27T11:17:51.017Z,18.00
2019-02-27T11:20:21.011Z,18.10
2019-02-27T11:22:49.734Z,18.20
2019-02-27T11:25:26.130Z,18.30
2019-02-27T11:27:54.779Z,18.30
2019-02-27T11:30:43.151Z,18.40
2019-02-27T11:33:11.700Z,18.40
2019-02-27T11:35:40.148Z,18.50
2019-02-27T11:38:08.697Z,18.60
2019-02-27T11:40:41.559Z,18.60
2019-02-27T11:43:07.682Z,18.80
2019-02-27T11:45:36.237Z,18.90
2019-02-27T11:48:04.870Z,19.00
2019-02-27T11:50:33.400Z,19.00
2019-02-27T11:53:02.949Z,19.10
2019-02-27T11:55:31.544Z,19.20
2019-02-27T11:58:04.515Z,19.30
2019-02-27T12:00:33.942Z,19.40
2019-02-27T12:03:02.471Z,19.50
2019-02-27T12:05:33.993Z,19.60
2019-02-27T12:08:01.184Z,19.70
2019-02-27T12:10:31.058Z,19.90
2019-02-27T12:13:01.168Z,19.90
2019-02-27T12:15:30.194Z,20.00
2019-02-27T12:18:00.547Z,20.20
2019-02-27T12:20:29.114Z,20.30
2019-02-27T12:22:57.595Z,20.40
2019-02-27T12:25:28.968Z,20.60
2019-02-27T12:27:56.862Z,20.70
2019-02-27T12:30:30.092Z,20.80
2019-02-27T12:32:58.727Z,20.90
2019-02-27T12:35:36.818Z,21.10
2019-02-27T12:38:08.284Z,21.20
2019-02-27T12:40:36.018Z,21.30
2019-02-27T12:43:04.552Z,21.40
2019-02-27T12:45:33.099Z,21.50
2019-02-27T12:48:01.664Z,21.60
2019-02-27T12:50:31.417Z,21.70
2019-02-27T12:53:00.297Z,21.80
2019-02-27T12:55:28.905Z,21.90
2019-02-27T12:57:57.560Z,22.00
2019-02-27T13:00:28.596Z,22.10
2019-02-27T13:02:58.920Z,22.20
2019-02-27T13:05:28.706Z,22.30
2019-02-27T13:07:57.614Z,22.40
2019-02-27T13:10:33.127Z,22.50
2019-02-27T13:12:59.231Z,22.60
2019-02-27T13:15:29.050Z,22.70
2019-02-27T13:17:58.108Z,22.70
2019-02-27T13:20:28.095Z,22.80
2019-02-27T13:22:56.723Z,22.90
2019-02-27T13:25:25.325Z,23.00
2019-02-27T13:27:53.949Z,23.10
2019-02-27T13:30:24.905Z,23.10
2019-02-27T13:32:53.379Z,23.10
2019-02-27T13:35:23.135Z,23.20
2019-02-27T13:37:52.411Z,23.30
2019-02-27T13:40:27.798Z,23.30
2019-02-27T13:42:56.391Z,23.40
2019-02-27T13:45:29.105Z,23.50
2019-02-27T13:47:59.075Z,23.60
2019-02-27T13:50:27.759Z,23.70
2019-02-27T13:52:56.321Z,23.90
2019-02-27T13:55:24.874Z,24.00
2019-02-27T13:57:53.472Z,24.10
2019-02-27T14:00:31.689Z,24.20
2019-02-27T14:03:00.168Z,24.30
2019-02-27T14:05:29.495Z,24.50
2019-02-27T14:07:58.919Z,24.60
2019-02-27T14:10:30.138Z,24.70
2019-02-27T14:12:58.789Z,24.90
2019-02-27T14:15:28.245Z,25.00
2019-02-27T14:17:56.856Z,25.10
2019-02-27T14:20:26.918Z,25.20
2019-02-27T14:22:55.823Z,25.40
2019-02-27T14:25:30.999Z,25.60
2019-02-27T14:27:56.769Z,25.90
2019-02-27T14:30:28.161Z,26.30
2019-02-27T14:32:56.652Z,26.80
2019-02-27T14:35:25.246Z,27.40
2019-02-27T14:37:53.865Z,27.90
2019-02-27T14:40:22.611Z,28.60
2019-02-27T14:42:54.195Z,29.30
2019-02-27T14:45:23.659Z,30.00
2019-02-27T14:47:52.184Z,30.80
2019-02-27T14:50:23.096Z,31.70
2019-02-27T14:52:51.641Z,32.50
2019-02-27T14:55:21.035Z,33.30
2019-02-27T14:57:51.160Z,34.00
2019-02-27T15:00:25.240Z,34.70
2019-02-27T15:02:55.599Z,35.40
2019-02-27T15:05:24.150Z,36.00
2019-02-27T15:07:54.646Z,36.60
2019-02-27T15:10:23.824Z,37.10
2019-02-27T15:12:55.204Z,37.60
2019-02-27T15:15:30.265Z,37.80
2019-02-27T15:17:58.881Z,38.10
2019-02-27T15:20:28.505Z,38.40
2019-02-27T15:22:57.227Z,38.70
2019-02-27T15:25:27.667Z,39.00
2019-02-27T15:27:58.728Z,39.20
2019-02-27T15:30:33.348Z,39.20
2019-02-27T15:33:05.214Z,39.10
2019-02-27T15:35:32.261Z,39.10
2019-02-27T15:38:00.772Z,38.90
2019-02-27T15:40:32.310Z,38.80
2019-02-27T15:43:00.807Z,38.80
2019-02-27T15:45:29.602Z,38.70
2019-02-27T15:47:58.151Z,38.40
2019-02-27T15:50:30.972Z,38.00
2019-02-27T15:52:59.528Z,37.50
2019-02-27T15:55:32.981Z,36.90
2019-02-27T15:57:58.260Z,36.20
2019-02-27T16:00:28.138Z,35.40
2019-02-27T16:02:56.743Z,34.70
2019-02-27T16:05:30.087Z,33.90
2019-02-27T16:07:55.623Z,33.20
2019-02-27T16:10:28.826Z,32.60
2019-02-27T16:13:00.945Z,32.00
2019-02-27T16:15:27.738Z,31.40
2019-02-27T16:17:56.335Z,30.80
2019-02-27T16:20:25.699Z,30.30
2019-02-27T16:22:54.237Z,29.80
2019-02-27T16:25:23.764Z,29.40
2019-02-27T16:27:52.313Z,28.90
2019-02-27T16:30:23.109Z,28.50
2019-02-27T16:32:51.880Z,28.10
2019-02-27T16:35:20.457Z,27.70
2019-02-27T16:37:49.101Z,27.40
2019-02-27T16:40:19.197Z,27.00
2019-02-27T16:42:48.095Z,26.60
2019-02-27T16:45:19.382Z,26.20
2019-02-27T16:47:47.911Z,25.80
2019-02-27T16:50:23.949Z,25.40
2019-02-27T16:52:49.792Z,25.10
2019-02-27T16:55:20.292Z,24.70
2019-02-27T16:57:49.129Z,24.40
2019-02-27T17:00:25.775Z,24.00
2019-02-27T17:02:54.332Z,23.60
2019-02-27T17:05:22.882Z,23.30
2019-02-27T17:07:52.113Z,23.00
2019-02-27T17:10:23.479Z,22.80
2019-02-27T17:12:52.059Z,22.50
2019-02-27T17:15:20.632Z,22.20
2019-02-27T17:17:50.518Z,22.00
2019-02-27T17:20:21.250Z,21.80
2019-02-27T17:22:49.796Z,21.60
2019-02-27T17:25:18.480Z,21.40
2019-02-27T17:27:50.942Z,21.20
2019-02-27T17:30:21.983Z,21.00
2019-02-27T17:32:50.656Z,20.80
2019-02-27T17:35:20.581Z,20.60
2019-02-27T17:37:51.236Z,20.40
2019-02-27T17:40:19.949Z,20.30
2019-02-27T17:42:53.620Z,20.10
2019-02-27T17:45:24.213Z,19.90
2019-02-27T17:47:52.773Z,19.80
2019-02-27T17:50:21.516Z,19.60
2019-02-27T17:52:50.200Z,19.40
2019-02-27T17:55:19.401Z,19.20
2019-02-27T17:57:47.974Z,19.10
2019-02-27T18:00:31.474Z,18.90
2019-02-27T18:03:00.050Z,18.80
2019-02-27T18:05:28.673Z,18.70
2019-02-27T18:07:57.218Z,18.60
2019-02-27T18:10:25.826Z,18.50
2019-02-27T18:12:54.472Z,18.40
2019-02-27T18:15:24.255Z,18.20
2019-02-27T18:17:52.905Z,18.10
2019-02-27T18:20:24.136Z,18.00
2019-02-27T18:22:51.608Z,17.90
2019-02-27T18:25:20.228Z,17.80
2019-02-27T18:27:48.785Z,17.70
2019-02-27T18:30:22.112Z,17.60
2019-02-27T18:32:50.666Z,17.60
2019-02-27T18:35:20.273Z,17.50
2019-02-27T18:37:53.218Z,17.40
2019-02-27T18:40:20.345Z,17.30
2019-02-27T18:42:48.907Z,17.20
2019-02-27T18:45:22.447Z,17.10
2019-02-27T18:47:50.981Z,17.00
2019-02-27T18:50:19.496Z,16.90
2019-02-27T18:52:48.686Z,16.90
2019-02-27T18:55:17.307Z,16.80
2019-02-27T18:57:47.144Z,16.70
2019-02-27T19:00:27.301Z,16.70
2019-02-27T19:03:10.275Z,16.60
2019-02-27T19:05:41.765Z,16.50
2019-02-27T19:08:09.181Z,16.40
2019-02-27T19:10:41.394Z,16.30
2019-02-27T19:13:08.110Z,16.30
2019-02-27T19:15:36.659Z,16.20
2019-02-27T19:18:06.611Z,16.10
2019-02-27T19:20:45.946Z,16.00
2019-02-27T19:23:17.242Z,15.90
2019-02-27T19:25:44.901Z,15.80
2019-02-27T19:28:13.543Z,15.70
2019-02-27T19:30:42.575Z,15.70
2019-02-27T19:33:11.358Z,15.60
2019-02-27T19:35:39.966Z,15.50
2019-02-27T19:38:12.552Z,15.50
2019-02-27T19:40:38.775Z,15.40
2019-02-27T19:43:07.342Z,15.30
2019-02-27T19:45:36.671Z,15.20
2019-02-27T19:48:05.386Z,15.20
2019-02-27T19:50:34.030Z,15.10
2019-02-27T19:53:05.154Z,15.00
2019-02-27T19:55:32.983Z,15.00
2019-02-27T19:58:01.546Z,14.90
2019-02-27T20:00:34.833Z,14.80
2019-02-27T20:03:01.816Z,14.80
2019-02-27T20:05:30.484Z,14.70
2019-02-27T20:07:59.111Z,14.60
2019-02-27T20:10:30.885Z,14.50
2019-02-27T20:12:58.178Z,14.50
2019-02-27T20:15:27.295Z,14.40
2019-02-27T20:17:55.962Z,14.40
2019-02-27T20:20:24.995Z,14.30
2019-02-27T20:22:54.776Z,14.20
2019-02-27T20:25:28.663Z,14.10
2019-02-27T20:27:58.723Z,14.10
2019-02-27T20:30:27.506Z,14.00
2019-02-27T20:32:56.265Z,14.00
2019-02-27T20:35:24.972Z,13.90
2019-02-27T20:37:56.300Z,13.90
2019-02-27T20:40:24.790Z,13.80
2019-02-27T20:42:55.210Z,13.80
2019-02-27T20:45:26.529Z,13.80
2019-02-27T20:47:57.651Z,13.70
2019-02-27T20:50:36.812Z,13.70
2019-02-27T20:53:06.533Z,13.60
2019-02-27T20:55:35.080Z,13.50
2019-02-27T20:58:03.637Z,13.50
2019-02-27T21:00:35.925Z,13.40
2019-02-27T21:03:02.757Z,13.30
2019-02-27T21:05:32.937Z,13.30
2019-02-27T21:08:02.545Z,13.20
2019-02-27T21:10:32.842Z,13.20
2019-02-27T21:13:01.488Z,13.10
2019-02-27T21:15:32.493Z,13.00
2019-02-27T21:18:00.655Z,13.00
2019-02-27T21:20:29.181Z,12.90
2019-02-27T21:22:59.800Z,12.90
2019-02-27T21:25:27.867Z,12.90
2019-02-27T21:27:56.354Z,12.80
2019-02-27T21:30:25.646Z,12.80
2019-02-27T21:32:54.108Z,12.70
2019-02-27T21:35:22.757Z,12.70
2019-02-27T21:37:54.133Z,12.70
2019-02-27T21:40:22.639Z,12.60
2019-02-27T21:42:51.899Z,12.60
2019-02-27T21:45:23.917Z,12.60
2019-02-27T21:47:52.921Z,12.50
2019-02-27T21:50:27.595Z,12.50
2019-02-27T21:52:56.212Z,12.50
2019-02-27T21:55:24.952Z,12.40
2019-02-27T21:57:58.101Z,12.40
2019-02-27T22:00:28.785Z,12.30
2019-02-27T22:02:58.092Z,12.30
2019-02-27T22:05:26.854Z,12.30
2019-02-27T22:07:55.482Z,12.20
2019-02-27T22:10:24.099Z,12.20
2019-02-27T22:12:52.739Z,12.20
2019-02-27T22:15:29.094Z,12.10
2019-02-27T22:17:57.806Z,12.10
2019-02-27T22:20:26.990Z,12.00
2019-02-27T22:22:55.695Z,12.00
2019-02-27T22:25:24.228Z,11.90
2019-02-27T22:27:52.856Z,11.90
2019-02-27T22:30:24.557Z,11.80
2019-02-27T22:32:53.128Z,11.80
2019-02-27T22:35:21.668Z,11.80
2019-02-27T22:37:54.131Z,11.70
2019-02-27T22:40:23.782Z,11.70
2019-02-27T22:42:52.362Z,11.70
2019-02-27T22:45:21.272Z,11.70
2019-02-27T22:47:50.378Z,11.60
2019-02-27T22:50:19.882Z,11.60
2019-02-27T22:52:54.077Z,11.50
2019-02-27T22:55:18.862Z,11.50
2019-02-27T22:57:47.418Z,11.40
2019-02-27T23:00:56.370Z,11.40
2019-02-27T23:03:28.572Z,11.30
2019-02-27T23:05:57.125Z,11.30
2019-02-27T23:08:25.778Z,11.20
2019-02-27T23:10:54.398Z,11.20
2019-02-27T23:13:23.198Z,11.20
2019-02-27T23:15:52.343Z,11.10
2019-02-27T23:18:20.799Z,11.10
2019-02-27T23:20:49.361Z,11.10
2019-02-27T23:23:17.926Z,11.10
2019-02-27T23:25:47.216Z,11.10
2019-02-27T23:28:16.006Z,11.10
2019-02-27T23:30:46.926Z,11.00
2019-02-27T23:33:14.828Z,11.00
2019-02-27T23:35:43.373Z,11.00
2019-02-27T23:38:11.856Z,11.00
2019-02-27T23:40:40.384Z,11.00
2019-02-27T23:43:08.956Z,11.00
2019-02-27T23:45:37.490Z,10.90
2019-02-27T23:48:05.989Z,10.90
2019-02-27T23:50:34.472Z,10.90
2019-02-27T23:53:02.969Z,10.80
2019-02-27T23:55:31.504Z,10.80
2019-02-27T23:58:00.006Z,10.80
